createdAt,value
2022-10-18T00:00:00.985Z,6.62
2022-10-18T00:02:29.674Z,6.49
2022-10-18T00:04:58.053Z,6.76
2022-10-18T00:07:28.193Z,6.57
2022-10-18T00:09:56.995Z,6.69
2022-10-18T00:12:25.495Z,6.76
2022-10-18T00:14:54.138Z,6.62
2022-10-18T00:17:22.511Z,6.76
2022-10-18T00:19:51.178Z,6.63
2022-10-18T00:22:19.652Z,6.56
2022-10-18T00:24:49.749Z,6.71
2022-10-18T00:27:19.075Z,6.73
2022-10-18T00:29:47.586Z,6.60
2022-10-18T00:32:15.986Z,6.75
2022-10-18T00:34:44.319Z,6.75
2022-10-18T00:37:12.838Z,6.70
2022-10-18T00:39:41.586Z,6.58
2022-10-18T00:42:13.545Z,6.71
2022-10-18T00:45:04.563Z,6.72
2022-10-18T00:47:33.455Z,6.67
2022-10-18T00:50:04.920Z,6.66
2022-10-18T00:52:36.417Z,6.63
2022-10-18T00:55:06.359Z,6.60
2022-10-18T00:57:36.425Z,6.32
2022-10-18T01:00:09.882Z,6.55
2022-10-18T01:02:38.543Z,6.43
2022-10-18T01:05:08.369Z,6.19
2022-10-18T01:07:51.618Z,6.46
2022-10-18T01:10:28.435Z,6.12
2022-10-18T01:13:09.849Z,6.37
2022-10-18T01:15:43.036Z,6.24
2022-10-18T01:18:27.891Z,6.12
2022-10-18T01:21:10.895Z,6.29
2022-10-18T01:24:01.444Z,6.24
2022-10-18T01:26:41.389Z,6.15
2022-10-18T01:29:18.813Z,6.31
2022-10-18T01:31:49.605Z,6.32
2022-10-18T01:34:19.565Z,5.86
2022-10-18T01:36:49.564Z,6.07
2022-10-18T01:39:22.130Z,6.17
2022-10-18T01:41:52.336Z,6.24
2022-10-18T01:44:23.372Z,6.07
2022-10-18T01:46:54.446Z,6.06
2022-10-18T01:49:22.926Z,6.38
2022-10-18T01:51:51.399Z,6.38
2022-10-18T01:54:28.457Z,6.41
2022-10-18T01:57:00.174Z,6.37
2022-10-18T01:59:36.737Z,6.39
2022-10-18T02:02:11.268Z,6.38
2022-10-18T02:04:46.480Z,5.94
2022-10-18T02:07:21.308Z,6.38
2022-10-18T02:09:54.205Z,6.37
2022-10-18T02:12:23.199Z,6.39
2022-10-18T02:14:52.326Z,6.33
2022-10-18T02:17:22.717Z,6.18
2022-10-18T02:19:52.513Z,6.36
2022-10-18T02:22:22.110Z,6.18
2022-10-18T02:24:53.527Z,6.09
2022-10-18T02:27:22.171Z,6.26
2022-10-18T02:29:50.952Z,6.15
2022-10-18T02:32:24.437Z,6.29
2022-10-18T02:34:58.752Z,6.27
2022-10-18T02:37:31.468Z,5.94
2022-10-18T02:39:59.981Z,6.05
2022-10-18T02:42:35.061Z,6.14
2022-10-18T02:45:03.545Z,5.91
2022-10-18T02:47:33.649Z,6.24
2022-10-18T02:50:02.169Z,5.70
2022-10-18T02:52:32.126Z,6.07
2022-10-18T02:55:01.419Z,6.14
2022-10-18T02:57:32.240Z,5.73
2022-10-18T03:00:00.850Z,6.05
2022-10-18T03:02:29.408Z,6.05
2022-10-18T03:04:59.192Z,5.91
2022-10-18T03:07:27.637Z,5.78
2022-10-18T03:09:56.002Z,6.23
2022-10-18T03:12:24.342Z,6.23
2022-10-18T03:14:52.707Z,5.66
2022-10-18T03:17:21.091Z,6.23
2022-10-18T03:19:49.534Z,6.26
2022-10-18T03:22:19.370Z,5.92
2022-10-18T03:24:47.883Z,6.16
2022-10-18T03:27:16.254Z,6.00
2022-10-18T03:29:44.696Z,6.12
2022-10-18T03:32:13.150Z,6.14
2022-10-18T03:34:41.530Z,6.17
2022-10-18T03:37:09.929Z,6.12
2022-10-18T03:39:39.674Z,5.98
2022-10-18T03:42:08.001Z,5.88
2022-10-18T03:44:36.357Z,5.92
2022-10-18T03:47:04.744Z,5.81
2022-10-18T03:52:02.390Z,5.80
2022-10-18T03:54:30.728Z,5.94
2022-10-18T03:57:00.590Z,5.84
2022-10-18T03:59:29.226Z,5.66
2022-10-18T04:01:57.603Z,5.94
2022-10-18T04:04:26.166Z,5.88
2022-10-18T04:06:54.680Z,5.81
2022-10-18T04:09:23.132Z,5.89
2022-10-18T04:11:51.877Z,6.11
2022-10-18T04:14:22.300Z,5.91
2022-10-18T04:16:50.650Z,6.15
2022-10-18T04:19:19.033Z,6.21
2022-10-18T04:21:47.502Z,6.23
2022-10-18T04:24:18.132Z,5.86
2022-10-18T04:26:49.184Z,6.12
2022-10-18T04:29:17.687Z,6.32
2022-10-18T04:31:47.814Z,6.37
2022-10-18T04:34:16.193Z,6.39
2022-10-18T04:36:44.830Z,6.40
2022-10-18T04:39:13.406Z,6.08
2022-10-18T04:41:41.938Z,6.41
2022-10-18T04:44:10.583Z,6.48
2022-10-18T04:46:39.024Z,6.53
2022-10-18T04:49:11.437Z,6.53
2022-10-18T04:51:39.951Z,6.57
2022-10-18T04:54:08.357Z,6.41
2022-10-18T04:56:36.811Z,6.63
2022-10-18T04:59:05.508Z,6.71
2022-10-18T05:01:33.989Z,6.75
2022-10-18T05:04:02.485Z,6.68
2022-10-18T05:06:32.260Z,6.75
2022-10-18T05:09:00.628Z,6.77
2022-10-18T05:11:29.032Z,6.83
2022-10-18T05:13:57.406Z,6.86
2022-10-18T05:16:25.839Z,6.46
2022-10-18T05:18:54.185Z,6.56
2022-10-18T05:21:22.612Z,6.92
2022-10-18T05:23:52.503Z,6.94
2022-10-18T05:26:20.861Z,6.79
2022-10-18T05:28:50.702Z,7.04
2022-10-18T05:31:19.496Z,7.05
2022-10-18T05:33:47.967Z,7.05
2022-10-18T05:36:16.396Z,6.90
2022-10-18T05:38:45.695Z,7.03
2022-10-18T05:41:15.722Z,6.89
2022-10-18T05:43:44.113Z,7.11
2022-10-18T05:46:15.401Z,7.06
2022-10-18T05:48:45.111Z,6.67
2022-10-18T05:51:13.615Z,7.01
2022-10-18T05:53:42.119Z,6.70
2022-10-18T05:56:12.068Z,7.03
2022-10-18T05:58:42.242Z,7.03
2022-10-18T06:01:11.839Z,7.05
2022-10-18T06:03:41.339Z,6.82
2022-10-18T06:06:11.803Z,6.74
2022-10-18T06:08:41.488Z,6.80
2022-10-18T06:11:11.196Z,6.97
2022-10-18T06:13:43.410Z,7.06
2022-10-18T06:16:12.612Z,6.89
2022-10-18T06:18:41.144Z,6.98
2022-10-18T06:21:09.761Z,6.79
2022-10-18T06:23:38.243Z,7.01
2022-10-18T06:26:09.485Z,6.92
2022-10-18T06:28:38.836Z,7.02
2022-10-18T06:31:08.712Z,6.94
2022-10-18T06:33:37.520Z,6.73
2022-10-18T06:36:07.515Z,6.69
2022-10-18T06:38:36.528Z,6.92
2022-10-18T06:41:05.906Z,7.08
2022-10-18T06:43:34.564Z,6.70
2022-10-18T06:46:07.931Z,6.67
2022-10-18T06:48:38.283Z,6.90
2022-10-18T06:51:07.946Z,7.09
2022-10-18T06:53:43.952Z,6.73
2022-10-18T06:56:21.789Z,6.94
2022-10-18T06:58:50.329Z,7.04
2022-10-18T07:01:19.596Z,7.03
2022-10-18T07:03:50.493Z,6.93
2022-10-18T07:06:19.826Z,7.00
2022-10-18T07:08:49.229Z,7.00
2022-10-18T07:11:19.270Z,6.80
2022-10-18T07:13:48.331Z,6.91
2022-10-18T07:16:18.829Z,6.76
2022-10-18T07:18:50.619Z,7.02
2022-10-18T07:21:20.821Z,7.06
2022-10-18T07:23:49.640Z,7.09
2022-10-18T07:26:20.217Z,6.59
2022-10-18T07:28:50.267Z,6.85
2022-10-18T07:31:19.340Z,6.87
2022-10-18T07:33:49.113Z,6.78
2022-10-18T07:36:17.741Z,6.42
2022-10-18T07:38:46.183Z,6.39
2022-10-18T07:41:15.227Z,6.53
2022-10-18T07:43:44.662Z,6.69
2022-10-18T07:46:13.380Z,6.69
2022-10-18T07:48:42.240Z,6.62
2022-10-18T07:51:12.402Z,6.53
2022-10-18T07:53:40.930Z,6.15
2022-10-18T07:56:16.017Z,6.56
2022-10-18T07:58:44.684Z,6.64
2022-10-18T08:01:13.584Z,6.57
2022-10-18T08:03:45.606Z,6.62
2022-10-18T08:06:18.187Z,6.52
2022-10-18T08:08:47.224Z,6.71
2022-10-18T08:11:17.504Z,6.75
2022-10-18T08:13:45.985Z,6.72
2022-10-18T08:16:20.277Z,6.52
2022-10-18T08:18:48.868Z,6.62
2022-10-18T08:21:21.487Z,6.44
2022-10-18T08:23:53.967Z,6.39
2022-10-18T08:26:24.560Z,6.24
2022-10-18T08:29:10.297Z,6.11
2022-10-18T08:31:42.910Z,6.23
2022-10-18T08:34:17.281Z,6.29
2022-10-18T08:36:49.682Z,6.50
2022-10-18T08:39:18.098Z,6.38
2022-10-18T08:42:24.734Z,6.32
2022-10-18T08:44:54.010Z,6.39
2022-10-18T08:47:24.079Z,6.04
2022-10-18T08:49:54.481Z,6.53
2022-10-18T08:52:32.344Z,6.59
2022-10-18T08:55:04.281Z,6.64
2022-10-18T08:57:35.371Z,6.71
2022-10-18T09:00:07.653Z,6.62
2022-10-18T09:02:43.613Z,6.68
2022-10-18T09:05:22.261Z,6.62
2022-10-18T09:08:22.354Z,6.76
2022-10-18T09:10:59.975Z,6.79
2022-10-18T09:13:47.149Z,6.82
2022-10-18T09:16:17.730Z,6.90
2022-10-18T09:18:57.493Z,6.76
2022-10-18T09:21:43.962Z,6.94
2022-10-18T09:24:15.503Z,7.04
2022-10-18T09:26:46.624Z,7.13
2022-10-18T09:29:30.191Z,7.15
2022-10-18T09:32:04.843Z,7.07
2022-10-18T09:34:33.549Z,7.20
2022-10-18T09:37:02.532Z,7.22
2022-10-18T09:39:34.255Z,7.31
2022-10-18T09:42:06.290Z,7.05
2022-10-18T09:44:37.593Z,7.09
2022-10-18T09:47:16.535Z,7.27
2022-10-18T09:49:47.814Z,7.28
2022-10-18T09:52:19.989Z,7.45
2022-10-18T09:54:55.520Z,7.31
2022-10-18T09:57:27.726Z,7.47
2022-10-18T09:59:56.158Z,7.34
2022-10-18T10:02:25.573Z,7.56
2022-10-18T10:04:55.859Z,7.03
2022-10-18T10:07:29.939Z,7.28
2022-10-18T10:10:07.873Z,7.56
2022-10-18T10:12:39.900Z,7.58
2022-10-18T10:15:10.294Z,7.60
2022-10-18T10:17:39.021Z,7.07
2022-10-18T10:20:17.207Z,7.71
2022-10-18T10:22:46.950Z,7.74
2022-10-18T10:25:24.947Z,7.82
2022-10-18T10:27:53.492Z,7.79
2022-10-18T10:30:28.312Z,7.84
2022-10-18T10:32:57.655Z,7.69
2022-10-18T10:38:27.360Z,7.93
2022-10-18T10:40:57.343Z,7.93
2022-10-18T10:43:43.300Z,8.18
2022-10-18T10:46:13.295Z,8.14
2022-10-18T10:48:47.478Z,8.12
2022-10-18T10:51:17.775Z,8.36
2022-10-18T10:53:52.187Z,8.33
2022-10-18T10:56:29.862Z,8.45
2022-10-18T10:59:01.714Z,8.34
2022-10-18T11:01:32.687Z,8.53
2022-10-18T11:04:03.540Z,8.45
2022-10-18T11:06:40.984Z,8.33
2022-10-18T11:09:17.844Z,8.89
2022-10-18T11:11:57.511Z,9.02
2022-10-18T11:14:27.704Z,9.03
2022-10-18T11:17:05.638Z,9.11
2022-10-18T11:19:40.461Z,9.07
2022-10-18T11:22:14.294Z,9.26
2022-10-18T11:24:42.667Z,9.41
2022-10-18T11:27:16.526Z,9.44
2022-10-18T11:29:56.743Z,9.41
2022-10-18T11:32:32.260Z,9.56
2022-10-18T11:35:09.936Z,9.48
2022-10-18T11:37:52.751Z,9.76
2022-10-18T11:40:33.721Z,9.62
2022-10-18T11:43:08.668Z,9.85
2022-10-18T11:45:42.675Z,9.91
2022-10-18T11:48:33.818Z,9.81
2022-10-18T11:51:06.338Z,9.96
2022-10-18T11:53:40.814Z,10.10
2022-10-18T11:56:15.078Z,9.98
2022-10-18T11:58:52.696Z,9.83
2022-10-18T12:01:28.451Z,10.18
2022-10-18T12:04:03.781Z,10.26
2022-10-18T12:06:36.227Z,10.29
2022-10-18T12:09:09.064Z,10.26
2022-10-18T12:11:44.073Z,10.33
2022-10-18T12:14:24.632Z,10.11
2022-10-18T12:17:07.621Z,10.37
2022-10-18T12:19:42.951Z,10.40
2022-10-18T12:22:16.364Z,10.35
2022-10-18T12:25:06.602Z,10.49
2022-10-18T12:30:39.999Z,10.51
2022-10-18T12:33:27.644Z,10.47
2022-10-18T12:36:03.566Z,10.18
2022-10-18T12:38:33.452Z,10.52
2022-10-18T12:41:02.078Z,10.53
2022-10-18T12:43:36.700Z,10.46
2022-10-18T12:46:12.175Z,10.56
2022-10-18T12:48:43.886Z,10.48
2022-10-18T12:51:16.195Z,10.18
2022-10-18T12:53:46.231Z,10.58
2022-10-18T12:56:38.263Z,10.66
2022-10-18T12:59:45.238Z,10.69
2022-10-18T13:02:36.054Z,10.70
2022-10-18T13:05:53.361Z,10.78
2022-10-18T13:08:42.209Z,10.83
2022-10-18T13:11:43.076Z,10.87
2022-10-18T13:14:53.431Z,10.91
2022-10-18T13:17:37.612Z,10.98
2022-10-18T13:20:27.087Z,11.04
2022-10-18T13:23:06.489Z,10.80
2022-10-18T13:25:38.096Z,11.09
2022-10-18T13:28:19.372Z,11.15
2022-10-18T13:30:53.190Z,10.94
2022-10-18T13:33:39.079Z,11.07
2022-10-18T13:36:14.404Z,11.12
2022-10-18T13:38:48.900Z,11.22
2022-10-18T13:41:19.522Z,10.99
2022-10-18T13:43:59.681Z,11.23
2022-10-18T13:47:05.531Z,11.29
2022-10-18T13:49:43.810Z,11.29
2022-10-18T13:52:18.269Z,11.28
2022-10-18T13:54:58.383Z,11.20
2022-10-18T13:57:37.235Z,11.37
2022-10-18T14:00:17.594Z,11.40
2022-10-18T14:03:00.214Z,11.39
2022-10-18T14:05:43.900Z,11.38
2022-10-18T14:08:15.737Z,11.25
2022-10-18T14:11:01.326Z,11.16
2022-10-18T14:13:35.891Z,11.29
2022-10-18T14:16:08.141Z,11.30
2022-10-18T14:18:38.334Z,11.28
2022-10-18T14:21:15.402Z,11.26
2022-10-18T14:23:46.658Z,11.24
2022-10-18T14:26:16.861Z,11.24
2022-10-18T14:28:59.545Z,10.97
2022-10-18T14:31:29.134Z,11.01
2022-10-18T14:33:59.052Z,11.12
2022-10-18T14:36:31.591Z,10.80
2022-10-18T14:39:01.182Z,11.05
2022-10-18T14:41:31.099Z,10.87
2022-10-18T14:44:18.681Z,11.03
2022-10-18T14:46:48.452Z,11.07
2022-10-18T14:49:17.792Z,11.05
2022-10-18T14:51:50.804Z,10.94
2022-10-18T14:54:22.342Z,10.96
2022-10-18T14:56:52.683Z,10.88
2022-10-18T14:59:23.321Z,10.83
2022-10-18T15:01:57.560Z,10.86
2022-10-18T15:04:31.261Z,10.91
2022-10-18T15:07:01.729Z,10.77
2022-10-18T15:09:31.021Z,10.83
2022-10-18T15:12:00.820Z,10.92
2022-10-18T15:14:29.821Z,10.93
2022-10-18T15:17:01.794Z,10.88
2022-10-18T15:19:33.825Z,10.72
2022-10-18T15:22:31.394Z,10.82
2022-10-18T15:25:14.674Z,10.80
2022-10-18T15:27:45.514Z,10.80
2022-10-18T15:30:21.367Z,10.76
2022-10-18T15:32:51.749Z,10.82
2022-10-18T15:35:26.353Z,10.85
2022-10-18T15:37:57.642Z,10.86
2022-10-18T15:40:38.722Z,10.82
2022-10-18T15:43:38.321Z,10.70
2022-10-18T15:46:07.589Z,10.77
2022-10-18T15:48:38.182Z,10.58
2022-10-18T15:51:07.719Z,10.68
2022-10-18T15:53:46.742Z,10.48
2022-10-18T15:56:29.011Z,10.56
2022-10-18T15:59:00.005Z,10.47
2022-10-18T16:01:34.556Z,10.17
2022-10-18T16:04:02.841Z,10.37
2022-10-18T16:06:32.532Z,10.23
2022-10-18T16:09:02.029Z,10.30
2022-10-18T16:11:30.966Z,10.15
2022-10-18T16:14:00.884Z,10.18
2022-10-18T16:16:30.809Z,9.77
2022-10-18T16:18:59.473Z,10.12
2022-10-18T16:21:29.719Z,10.10
2022-10-18T16:23:58.337Z,9.97
2022-10-18T16:26:28.004Z,9.67
2022-10-18T16:28:57.433Z,9.59
2022-10-18T16:31:29.069Z,9.74
2022-10-18T16:33:57.750Z,9.73
2022-10-18T16:36:29.210Z,9.37
2022-10-18T16:39:02.011Z,9.52
2022-10-18T16:41:30.482Z,9.65
2022-10-18T16:43:59.035Z,9.59
2022-10-18T16:46:30.377Z,9.53
2022-10-18T16:48:59.006Z,9.44
2022-10-18T16:51:27.674Z,9.39
2022-10-18T16:53:56.654Z,9.32
2022-10-18T16:56:27.192Z,9.27
2022-10-18T16:58:55.735Z,9.08
2022-10-18T17:01:24.961Z,9.04
2022-10-18T17:03:55.510Z,9.17
2022-10-18T17:06:25.882Z,9.14
2022-10-18T17:08:55.494Z,9.16
2022-10-18T17:11:26.243Z,8.84
2022-10-18T17:13:54.787Z,9.01
2022-10-18T17:19:00.084Z,9.04
2022-10-18T17:21:29.411Z,8.71
2022-10-18T17:24:00.690Z,8.81
2022-10-18T17:26:30.322Z,8.85
2022-10-18T17:29:00.674Z,8.70
2022-10-18T17:31:29.539Z,8.52
2022-10-18T17:34:01.917Z,8.47
2022-10-18T17:36:30.938Z,8.88
2022-10-18T17:38:59.609Z,8.86
2022-10-18T17:41:28.388Z,8.74
2022-10-18T17:43:57.385Z,8.82
2022-10-18T17:46:25.749Z,8.80
2022-10-18T17:48:55.123Z,8.74
2022-10-18T17:51:25.169Z,8.63
2022-10-18T17:53:53.553Z,8.69
2022-10-18T17:56:21.923Z,8.69
2022-10-18T17:58:52.030Z,8.65
2022-10-18T18:01:23.183Z,8.62
2022-10-18T18:03:53.672Z,8.61
2022-10-18T18:06:30.843Z,8.35
2022-10-18T18:09:48.790Z,8.36
2022-10-18T18:12:35.660Z,8.57
2022-10-18T18:15:04.498Z,8.52
2022-10-18T18:17:34.508Z,8.35
2022-10-18T18:20:15.465Z,8.28
2022-10-18T18:22:45.205Z,8.00
2022-10-18T18:25:13.796Z,8.31
2022-10-18T18:27:42.258Z,8.52
2022-10-18T18:30:11.458Z,7.88
2022-10-18T18:32:41.474Z,8.16
2022-10-18T18:35:09.894Z,8.28
2022-10-18T18:37:38.429Z,8.23
2022-10-18T18:40:09.707Z,8.29
2022-10-18T18:42:38.154Z,8.31
2022-10-18T18:45:07.654Z,8.29
2022-10-18T18:47:36.376Z,8.29
2022-10-18T18:50:04.997Z,8.07
2022-10-18T18:52:33.676Z,8.13
2022-10-18T18:55:02.369Z,8.14
2022-10-18T18:57:33.351Z,8.03
2022-10-18T19:00:03.308Z,7.97
2022-10-18T19:02:32.782Z,7.92
2022-10-18T19:05:04.384Z,7.85
2022-10-18T19:07:35.050Z,7.81
2022-10-18T19:10:04.054Z,7.52
2022-10-18T19:12:33.892Z,7.71
2022-10-18T19:15:02.329Z,7.67
2022-10-18T19:17:32.137Z,7.52
2022-10-18T19:20:01.345Z,7.66
2022-10-18T19:22:31.176Z,7.50
2022-10-18T19:24:59.635Z,7.32
2022-10-18T19:27:28.134Z,7.70
2022-10-18T19:29:58.141Z,7.66
2022-10-18T19:34:54.989Z,7.61
2022-10-18T19:37:23.438Z,6.96
2022-10-18T19:39:51.966Z,7.78
2022-10-18T19:42:24.239Z,7.65
2022-10-18T19:44:54.937Z,7.76
2022-10-18T19:47:24.750Z,7.82
2022-10-18T19:49:53.968Z,7.52
2022-10-18T19:52:22.538Z,7.77
2022-10-18T19:54:51.063Z,7.88
2022-10-18T19:57:22.194Z,7.58
2022-10-18T19:59:50.705Z,7.49
2022-10-18T20:02:19.192Z,7.89
2022-10-18T20:04:49.089Z,7.90
2022-10-18T20:07:17.584Z,7.83
2022-10-18T20:09:47.345Z,7.83
2022-10-18T20:12:15.776Z,7.72
2022-10-18T20:14:44.244Z,7.73
2022-10-18T20:17:13.740Z,7.82
2022-10-18T20:19:42.210Z,7.85
2022-10-18T20:22:12.112Z,7.84
2022-10-18T20:24:40.577Z,7.48
2022-10-18T20:27:09.122Z,7.60
2022-10-18T20:29:37.544Z,7.56
2022-10-18T20:32:10.786Z,7.42
2022-10-18T20:34:39.146Z,7.84
2022-10-18T20:37:07.584Z,7.71
2022-10-18T20:39:37.317Z,7.82
2022-10-18T20:42:05.719Z,7.60
2022-10-18T20:44:34.199Z,7.82
2022-10-18T20:47:02.615Z,7.81
2022-10-18T20:49:31.145Z,7.82
2022-10-18T20:51:59.475Z,7.56
2022-10-18T20:54:28.047Z,7.63
2022-10-18T20:56:57.804Z,7.72
2022-10-18T20:59:26.217Z,7.66
2022-10-18T21:01:54.563Z,7.66
2022-10-18T21:04:22.975Z,7.66
2022-10-18T21:06:51.388Z,7.64
2022-10-18T21:09:21.013Z,7.60
2022-10-18T21:11:51.099Z,7.59
2022-10-18T21:14:22.677Z,7.50
2022-10-18T21:16:51.996Z,7.33
2022-10-18T21:19:22.380Z,7.37
2022-10-18T21:21:52.421Z,7.50
2022-10-18T21:24:22.192Z,7.28
2022-10-18T21:26:50.630Z,7.29
2022-10-18T21:29:22.550Z,7.32
2022-10-18T21:31:53.583Z,7.35
2022-10-18T21:34:22.049Z,7.30
2022-10-18T21:36:50.548Z,7.00
2022-10-18T21:39:20.673Z,7.29
2022-10-18T21:41:49.275Z,7.34
2022-10-18T21:44:18.243Z,7.22
2022-10-18T21:46:48.048Z,7.35
2022-10-18T21:49:16.811Z,7.29
2022-10-18T21:51:47.014Z,7.37
2022-10-18T21:54:17.357Z,7.25
2022-10-18T21:56:45.973Z,7.42
2022-10-18T21:59:14.929Z,7.52
2022-10-18T22:01:44.763Z,7.54
2022-10-18T22:04:22.492Z,7.52
2022-10-18T22:06:52.023Z,7.52
2022-10-18T22:09:22.417Z,7.21
2022-10-18T22:11:55.793Z,7.36
2022-10-18T22:14:24.421Z,7.36
2022-10-18T22:16:52.859Z,7.48
2022-10-18T22:19:22.678Z,7.13
2022-10-18T22:21:51.088Z,7.20
2022-10-18T22:24:19.502Z,7.32
2022-10-18T22:26:47.967Z,7.39
2022-10-18T22:29:17.949Z,7.29
2022-10-18T22:31:47.786Z,7.25
2022-10-18T22:34:18.111Z,7.21
2022-10-18T22:36:47.926Z,7.20
2022-10-18T22:39:17.017Z,7.36
2022-10-18T22:41:45.656Z,7.33
2022-10-18T22:44:15.362Z,7.32
2022-10-18T22:46:44.365Z,7.30
2022-10-18T22:49:13.133Z,7.21
2022-10-18T22:51:41.793Z,7.30
2022-10-18T22:54:11.713Z,7.31
2022-10-18T22:56:40.142Z,7.27
2022-10-18T22:59:08.740Z,7.22
2022-10-18T23:01:37.290Z,7.31
2022-10-18T23:04:05.855Z,7.24
2022-10-18T23:06:35.992Z,7.33
2022-10-18T23:09:06.818Z,7.33
2022-10-18T23:11:37.485Z,7.36
2022-10-18T23:14:06.966Z,7.07
2022-10-18T23:16:35.317Z,7.20
2022-10-18T23:19:03.697Z,7.39
2022-10-18T23:21:32.094Z,7.40
2022-10-18T23:24:00.435Z,7.41
2022-10-18T23:26:29.269Z,7.29
2022-10-18T23:28:59.136Z,7.36
2022-10-18T23:31:29.008Z,7.04
2022-10-18T23:33:59.218Z,7.37
2022-10-18T23:36:27.800Z,7.39
2022-10-18T23:38:56.622Z,7.39
2022-10-18T23:41:25.166Z,7.26
2022-10-18T23:43:53.579Z,7.33
2022-10-18T23:46:23.512Z,7.38
2022-10-18T23:48:51.980Z,7.37
2022-10-18T23:51:20.452Z,6.79
2022-10-18T23:53:48.876Z,7.39
2022-10-18T23:56:17.882Z,7.08
2022-10-18T23:58:46.723Z,7.37
